Metar-Reports

 

EDDS - Stuttgart/Echter, Germany
Distance from station: SW 11km
Updated: Sat, 10-Dec-2022 8:50am CET
Overcast
Overcast
 Wind from NNW
Wind: NNW 13 km/h
Temperatur: 0°C
Wind Chill: -4°C
Taupunkt: -1°C
Luftfeuchte: 93%
Luftdruck: 1005 hPa
Wolken: Overcast
Sicht: 10 km
Wolken Details: Mostly Cloudy 1250 m
Overcast 1433 m
2022/12/10 07:50 EDDS 100750Z AUTO 34007KT 9999 BKN041 OVC047 M00/M01 Q1005 TEMPO -SN
EDTY - Schwaebisch Hall, Germany
Distance from station: NE 54km
Updated: Sat, 10-Dec-2022 8:50am CET
Partly Cloudy
Partly Cloudy
 Wind from varies
Wind: varies 4 km/h
Temperatur: -1°C
Taupunkt: -2°C
Luftfeuchte: 93%
Luftdruck: 1005 hPa
Wolken: Partly Cloudy
Sicht: 6 km
2022/12/10 07:50 EDTY 100750Z VRB02KT 6000 NSC M01/M02 Q1005
 
ETHL - Laupheim (ger-Ar, Germany
Distance from station: SE 73km
Updated: Sat, 10-Dec-2022 8:20am CET
Light snow, Mist, Mostly cloudy
Light snow, Mist, Mostly cloudy
 Wind from NE
Wind: NE 11 km/h
Temperatur: -1°C
Wind Chill: -5°C
Taupunkt: -2°C
Luftfeuchte: 93%
Luftdruck: 1003 hPa
Wetter: Light snow, Mist
Wolken: Mostly Cloudy
Sicht: 3 km
Wolken Details: Mostly Cloudy 122 m
Mostly Cloudy 549 m
2022/12/10 07:20 ETHL 100720Z 05006KT 3200 -SN BR BKN004 BKN018 M01/M02 Q1003 YLO
ETHN - Niederstetten (g, Germany
Distance from station: NNE 85km
Updated: Sat, 10-Dec-2022 8:20am CET
Mist, Mostly cloudy
Mist, Mostly cloudy
 Wind from NNW
Wind: NNW 6 km/h
Temperatur: -3°C
Taupunkt: -3°C
Luftfeuchte: 100%
Luftdruck: 1005 hPa
Wetter: Mist
Wolken: Mostly Cloudy
Sicht: 3 km
Wolken Details: Mostly Cloudy 1524 m
2022/12/10 07:20 ETHN 100720Z 33003KT 3000 BR BKN050 M03/M03 Q1005 YLO
 
EDSB - Karlsruhe/Baden, Germany
Distance from station: W 91km
Updated: Sat, 10-Dec-2022 8:50am CET
Overcast
Overcast
 Wind from NNE
Wind: NNE 19 km/h
Temperatur: 1°C
Wind Chill: -4°C
Taupunkt: -1°C
Luftfeuchte: 87%
Luftdruck: 1007 hPa
Wolken: Overcast
Sicht: 9 km
Wolken Details: Mostly Cloudy 305 m
Overcast 1494 m
2022/12/10 07:50 EDSB 100750Z 02010KT 9000 BKN010 OVC049 01/M01 Q1007
EDFM - Mannheim, Germany
Distance from station: NNW 103km
Updated: Sat, 10-Dec-2022 8:50am CET
Clear
Clear
 Wind from N
Wind: N 13 km/h
Temperatur: 0°C
Wind Chill: -4°C
Taupunkt: -2°C
Luftfeuchte: 87%
Luftdruck: 1008 hPa
Wetter: Clear
Sicht: greater than 10 km
2022/12/10 07:50 EDFM 100750Z 35007KT CAVOK 00/M02 Q1008
 
EDJA - Memmingen Allgau, Germany
Distance from station: SE 108km
Updated: Sat, 10-Dec-2022 8:50am CET
Mist, Overcast
Mist, Overcast
 Wind from NNE
Wind: NNE 15 km/h
Temperatur: -1°C
Wind Chill: -6°C
Taupunkt: -1°C
Luftfeuchte: 100%
Luftdruck: 1003 hPa
Wetter: Mist
Wolken: Overcast
Sicht: 2 km
Wolken Details: Overcast 61 m
2022/12/10 07:50 EDJA 100750Z 02008KT 2100 BR OVC002 M01/M01 Q1003
ETIK - Illesheim (usa-A, Germany
Distance from station: NE 111km
Updated: Sat, 10-Dec-2022 6:55am CET
NOT Current
Mist, Overcast
Mist, Overcast
 Wind from calm
Wind: Calm
Temperatur: -3°C
Taupunkt: -3°C
Luftfeuchte: 100%
Luftdruck: 1005.4 hPa
Wetter: Mist
Wolken: Overcast
Sicht: 5 km
Wolken Details: Overcast 1676 m
2022/12/10 05:55 ETIK 100555Z AUTO 00000KT 5000 BR OVC055 M03/M03 A2969 RMK AO2 SLP076 T10301031 11021 21034 53003 FZRANO $
 
ETEB - Katterbach (usa-, Germany
Distance from station: NE 114km
Updated: Sat, 10-Dec-2022 6:56am CET
NOT Current
Overcast
Overcast
 Wind from calm
Wind: Calm
Temperatur: -3°C
Taupunkt: -4°C
Luftfeuchte: 93%
Luftdruck: 1004.1 hPa
Wolken: Overcast
Sicht: 10 km
Wolken Details: Overcast 1494 m
2022/12/10 05:56 ETEB 100556Z AUTO 00000KT 9999 OVC049 M03/M04 A2965 RMK AO2 FZDZE56 SLP083 $
EDTL - Lahr (can-Afb), Germany
Distance from station: WSW 117km
Updated: Sat, 10-Dec-2022 8:50am CET
Light snow, Overcast
Light snow, Overcast
 Wind from N
Wind: N 13 km/h
Temperatur: 1°C
Wind Chill: -3°C
Taupunkt: 0°C
Luftfeuchte: 93%
Luftdruck: 1007 hPa
Wetter: Light Snow
Wolken: Overcast
Sicht: 5 km
Wolken Details: Overcast 244 m
2022/12/10 07:50 EDTL 100750Z 36007KT 5000 -SN OVC008 01/M00 Q1007
 
EDNY - Friedrichshafen, Germany
Distance from station: S 121km
Updated: Sat, 10-Dec-2022 8:50am CET
Light snow, Overcast
Light snow, Overcast
 Wind from NNE
Wind: NNE 6 km/h
Temperatur: 1°C
Taupunkt: 0°C
Luftfeuchte: 93%
Luftdruck: 1003 hPa
Wetter: Light Snow
Wolken: Overcast
Sicht: 8 km
Wolken Details: Few Clouds 579 m
Overcast 853 m
2022/12/10 07:50 EDNY 100750Z 03003KT 340V070 8000 -SN FEW019 OVC028 01/M00 Q1003
EDMA - Augsburg/Mulhaus, Germany
Distance from station: ESE 123km
Updated: Sat, 10-Dec-2022 8:50am CET
Overcast
Overcast
 Wind from N
Wind: N 7 km/h
Temperatur: 0°C
Wind Chill: -3°C
Taupunkt: -1°C
Luftfeuchte: 93%
Luftdruck: 1004 hPa
Wolken: Overcast
Sicht: 6 km
Wolken Details: Overcast 183 m
2022/12/10 07:50 EDMA 100750Z 36004KT 6000 OVC006 M00/M01 Q1004
 
LFST - Strasbourg/Entzh, France
Distance from station: W 127km
Updated: Sat, 10-Dec-2022 8:30am CET
Overcast
Overcast
 Wind from N
Wind: N 15 km/h
Temperatur: 1°C
Wind Chill: -3°C
Taupunkt: 0°C
Luftfeuchte: 93%
Luftdruck: 1007 hPa
Wolken: Overcast
Sicht: 9 km
Wolken Details: Overcast 457 m
2022/12/10 07:30 LFST 100730Z AUTO 36008KT 9000 OVC015 01/M00 Q1007 TEMPO 4000 BR BKN009
ETSL - Lechfeld (ger-Af, Germany
Distance from station: ESE 131km
Updated: Sat, 10-Dec-2022 8:20am CET

 Wind from NNE
Wind: NNE 7 km/h
Temperatur: -1°C
Wind Chill: -4°C
Taupunkt: -1°C
Luftfeuchte: 100%
Luftdruck: 1003 hPa
Sicht: 4 km
2022/12/10 07:20 ETSL 100720Z AUTO 02004KT 4100 // ////// M01/M01 Q1003 ///
 
ETSN - Neuburg/Donau, Germany
Distance from station: E 139km
Updated: Sat, 10-Dec-2022 8:20am CET
Overcast
Overcast
 Wind from NNW
Wind: NNW 6 km/h
Temperatur: 0°C
Taupunkt: -1°C
Luftfeuchte: 93%
Luftdruck: 1005 hPa
Wolken: Overcast
Sicht: 6 km
Wolken Details: Overcast 914 m
2022/12/10 07:20 ETSN 100720Z 34003KT 6000 OVC030 00/M01 Q1005 WHT
LSZR - Rheineck/Altenrh, Switzerland
Distance from station: S 141km
Updated: Sat, 10-Dec-2022 8:50am CET
Light drizzle, Overcast
Light drizzle, Overcast
 Wind from NW
Wind: NW 6 km/h
Temperatur: 2°C
Taupunkt: 1°C
Luftfeuchte: 93%
Luftdruck: 1004 hPa
Wetter: Light Drizzle
Wolken: Overcast
Sicht: 10 km
Wolken Details: Overcast 244 m
2022/12/10 07:50 LSZR 100750Z 32003KT 9999 -DZ OVC008 02/01 Q1004 RMK B
 
ETAR - Ramstein (usafb), Germany
Distance from station: WNW 147km
Updated: Sat, 10-Dec-2022 6:55am CET
NOT Current
Mostly Cloudy
Mostly Cloudy
 Wind from ENE
Wind: ENE 7 km/h
Temperatur: 0°C
Wind Chill: -3°C
Taupunkt: -3°C
Luftfeuchte: 80%
Luftdruck: 1006.1 hPa
Wolken: Mostly Cloudy
Sicht: 10 km
Wolken Details: Partly Cloudy 610 m
Mostly Cloudy 1829 m
2022/12/10 05:55 ETAR 100555Z 06004KT 9999 SCT020 BKN060 M00/M03 A2971 RMK AO2A DZB15E29 SLP078 P0000 60000 T10051026 11002 21008 52009 $
LSZH - Zurich-Kloten (a, Switzerland
Distance from station: SSW 152km
Updated: Sat, 10-Dec-2022 8:50am CET
Light snow, Mostly cloudy
Light snow, Mostly cloudy
 Wind from NNW
Wind: NNW 11 km/h
Temperatur: 0°C
Wind Chill: -4°C
Taupunkt: -1°C
Luftfeuchte: 93%
Luftdruck: 1004 hPa
Wetter: Light Snow
Wolken: Mostly Cloudy
Sicht: 3 km
Wolken Details: Few Clouds 152 m
Mostly Cloudy 244 m
2022/12/10 07:50 LSZH 100750Z 33006KT 2500 -SN FEW005 BKN008 00/M01 Q1004 TEMPO 1200 SN BKN004
 
EDDN - Nuernberg, Germany
Distance from station: NE 153km
Updated: Sat, 10-Dec-2022 8:50am CET
Overcast
Overcast
 Wind from NNW
Wind: NNW 11 km/h
Temperatur: -3°C
Wind Chill: -7°C
Taupunkt: -4°C
Luftfeuchte: 93%
Luftdruck: 1006 hPa
Wolken: Overcast
Sicht: 7 km
Wolken Details: Overcast 579 m
2022/12/10 07:50 EDDN 100750Z AUTO 33006KT 300V360 7000 OVC019 M03/M04 Q1006 NOSIG
EDDF - Frankfurt Main A, Germany
Distance from station: NNW 154km
Updated: Sat, 10-Dec-2022 8:50am CET
Partly Cloudy
Partly Cloudy
 Wind from WSW
Wind: WSW 4 km/h
Temperatur: -2°C
Taupunkt: -3°C
Luftfeuchte: 93%
Luftdruck: 1008 hPa
Wolken: Partly Cloudy
Sicht: 10 km
Wolken Details: Few Clouds 427 m
Partly Cloudy 1402 m
2022/12/10 07:50 EDDF 100750Z AUTO 25002KT 9999 FEW014 SCT046 M02/M03 Q1008 NOSIG

Metar display script from Saratoga-Weather.org